createdAt,value
2017-08-08T00:01:00.644Z,91.53
2017-08-08T00:02:10.172Z,91.14
2017-08-08T00:03:19.379Z,91.24
2017-08-08T00:04:28.597Z,91.77
2017-08-08T00:05:37.808Z,91.1
2017-08-08T00:06:47.339Z,92.63
2017-08-08T00:07:57.512Z,93.3
2017-08-08T00:09:06.720Z,93.11
2017-08-08T00:10:16.260Z,92.63
2017-08-08T00:11:25.468Z,93.49
2017-08-08T00:12:34.998Z,94.55
2017-08-08T00:13:44.578Z,93.98
2017-08-08T00:14:54.107Z,94.17
2017-08-08T00:16:03.637Z,93.49
2017-08-08T00:17:12.844Z,93.88
2017-08-08T00:18:22.049Z,95.03
2017-08-08T00:19:32.331Z,94.93
2017-08-08T00:20:41.539Z,94.74
2017-08-08T00:21:51.070Z,94.84
2017-08-08T00:23:00.280Z,94.26
2017-08-08T00:24:09.489Z,93.98
2017-08-08T00:25:18.855Z,94.84
2017-08-08T00:26:29.038Z,93.88
2017-08-08T00:27:38.245Z,94.84
2017-08-08T00:28:47.774Z,93.78
2017-08-08T00:29:57.300Z,94.93
2017-08-08T00:31:06.885Z,94.35
2017-08-08T00:32:16.089Z,94.45
2017-08-08T00:33:25.943Z,95.12
2017-08-08T00:34:35.178Z,94.84
2017-08-08T00:35:44.718Z,94.55
2017-08-08T00:36:54.026Z,95.75
2017-08-08T00:38:03.554Z,95.6
2017-08-08T00:39:12.761Z,96.37
2017-08-08T00:40:22.291Z,95.46
2017-08-08T00:41:32.144Z,94.84
2017-08-08T00:42:41.452Z,93.93
2017-08-08T00:43:51.312Z,95.22
2017-08-08T00:45:01.168Z,95.36
2017-08-08T00:46:10.054Z,95.46
2017-08-08T00:47:19.583Z,95.56
2017-08-08T00:48:29.168Z,95.94
2017-08-08T00:49:38.697Z,96.42
2017-08-08T00:50:48.552Z,95.94
2017-08-08T00:51:57.762Z,95.84
2017-08-08T00:53:07.626Z,95.94
2017-08-08T00:54:17.518Z,96.22
2017-08-08T00:55:26.726Z,96.32
2017-08-08T00:56:35.938Z,95.94
2017-08-08T00:57:45.143Z,96.13
2017-08-08T00:58:55.005Z,96.22
2017-08-08T01:00:05.017Z,97.18
2017-08-08T01:01:14.879Z,97.95
2017-08-08T01:02:24.731Z,97.09
2017-08-08T01:03:33.613Z,97.28
2017-08-08T01:04:42.818Z,97.28
2017-08-08T01:05:52.059Z,98.05
2017-08-08T01:07:01.265Z,98.24
2017-08-08T01:08:11.445Z,98.62
2017-08-08T01:09:20.352Z,98.52
2017-08-08T01:10:29.884Z,97.95
2017-08-08T01:11:39.194Z,97.85
2017-08-08T01:12:48.417Z,98.14
2017-08-08T01:13:57.626Z,97.85
2017-08-08T01:15:07.165Z,97.95
2017-08-08T01:16:16.373Z,97.9
2017-08-08T01:17:25.590Z,97.9
2017-08-08T01:18:34.806Z,96.84
2017-08-08T01:19:44.368Z,98.71
2017-08-08T01:20:53.271Z,97.95
2017-08-08T01:22:02.799Z,98.09
2017-08-08T01:23:12.517Z,98.33
2017-08-08T01:24:21.725Z,98.47
2017-08-08T01:25:31.256Z,99.15
2017-08-08T01:26:40.791Z,98.76
2017-08-08T01:27:50.330Z,99.15
2017-08-08T01:29:00.113Z,99.99
2017-08-08T01:30:09.963Z,99.81
2017-08-08T01:31:19.504Z,99.72
2017-08-08T01:32:29.036Z,99.62
2017-08-08T01:33:39.215Z,99.99
2017-08-08T01:34:48.573Z,99.52
2017-08-08T01:35:57.786Z,99.52
2017-08-08T01:37:06.990Z,99.99
2017-08-08T01:38:16.523Z,99.99
2017-08-08T01:39:25.732Z,99.72
2017-08-08T01:40:35.934Z,99.91
2017-08-08T01:41:45.471Z,99.91
2017-08-08T01:42:55.002Z,99.72
2017-08-08T01:44:05.178Z,99.99
2017-08-08T01:45:14.386Z,99.99
2017-08-08T01:46:23.690Z,99.99
2017-08-08T01:47:32.895Z,99.52
2017-08-08T01:48:42.103Z,99.24
2017-08-08T01:49:51.317Z,99.62
2017-08-08T01:51:00.525Z,99.99
2017-08-08T01:52:09.882Z,99.81
2017-08-08T01:53:18.767Z,99.05
2017-08-08T01:54:27.973Z,99.99
2017-08-08T01:55:37.861Z,99.24
2017-08-08T01:56:47.071Z,98.86
2017-08-08T01:57:56.428Z,99.15
2017-08-08T01:59:05.634Z,99.29
2017-08-08T02:00:15.165Z,99.15
2017-08-08T02:01:24.696Z,99.52
2017-08-08T02:02:34.229Z,98.28
2017-08-08T02:03:43.531Z,98.95
2017-08-08T02:04:53.063Z,98.57
2017-08-08T02:06:02.270Z,98.19
2017-08-08T02:07:11.803Z,97.9
2017-08-08T02:08:21.337Z,98.66
2017-08-08T02:09:30.698Z,98
2017-08-08T02:10:39.910Z,97.71
2017-08-08T02:11:49.437Z,98.66
2017-08-08T02:12:58.657Z,98.95
2017-08-08T02:14:08.192Z,97.71
2017-08-08T02:15:17.970Z,98.28
2017-08-08T02:16:27.176Z,98.66
2017-08-08T02:17:36.059Z,97.9
2017-08-08T02:18:45.262Z,98.38
2017-08-08T02:19:54.791Z,98.71
2017-08-08T02:21:04.691Z,98.33
2017-08-08T02:22:14.229Z,98.66
2017-08-08T02:23:23.438Z,98.86
2017-08-08T02:24:32.640Z,99.33
2017-08-08T02:25:41.843Z,98.38
2017-08-08T02:26:51.028Z,98.47
2017-08-08T02:28:00.233Z,98.66
2017-08-08T02:29:09.760Z,98.38
2017-08-08T02:30:19.289Z,97.66
2017-08-08T02:31:28.497Z,97.13
2017-08-08T02:32:38.090Z,97.8
2017-08-08T02:33:46.974Z,97.71
2017-08-08T02:34:56.180Z,96.66
2017-08-08T02:36:05.395Z,97.23
2017-08-08T02:37:15.266Z,96.61
2017-08-08T02:38:24.993Z,96.84
2017-08-08T02:39:34.200Z,96.94
2017-08-08T02:40:43.411Z,96.66
2017-08-08T02:41:53.260Z,97.33
2017-08-08T02:43:03.124Z,97.8
2017-08-08T02:44:12.480Z,95.7
2017-08-08T02:45:21.374Z,95.79
2017-08-08T02:46:30.958Z,96.47
2017-08-08T02:47:40.830Z,96.27
2017-08-08T02:48:50.689Z,96.94
2017-08-08T02:50:00.702Z,95.98
2017-08-08T02:51:10.238Z,96.94
2017-08-08T02:52:19.769Z,95.98
2017-08-08T02:53:28.977Z,97.33
2017-08-08T02:54:37.870Z,97.23
2017-08-08T02:55:47.705Z,97.42
2017-08-08T02:56:56.912Z,96.47
2017-08-08T02:58:06.761Z,97.04
2017-08-08T02:59:15.971Z,96.84
2017-08-08T03:00:25.504Z,97.42
2017-08-08T03:01:34.491Z,97.23
2017-08-08T03:02:44.017Z,98.09
2017-08-08T03:03:53.866Z,97.33
2017-08-08T03:05:03.395Z,97.23
2017-08-08T03:06:13.569Z,98.47
2017-08-08T03:07:23.522Z,97.9
2017-08-08T03:08:33.051Z,97.71
2017-08-08T03:09:41.931Z,97.33
2017-08-08T03:10:51.133Z,97.52
2017-08-08T03:12:00.022Z,97.8
2017-08-08T03:13:09.427Z,97.37
2017-08-08T03:14:18.960Z,96.84
2017-08-08T03:15:28.504Z,98.09
2017-08-08T03:16:37.712Z,98
2017-08-08T03:17:46.917Z,98.09
2017-08-08T03:18:56.601Z,97.66
2017-08-08T03:20:05.813Z,97.8
2017-08-08T03:21:15.019Z,97.42
2017-08-08T03:22:24.241Z,97.8
2017-08-08T03:23:33.458Z,97.66
2017-08-08T03:24:42.786Z,97.66
2017-08-08T03:25:51.662Z,97.85
2017-08-08T03:27:00.867Z,98.04
2017-08-08T03:28:10.412Z,97.85
2017-08-08T03:29:19.636Z,97.85
2017-08-08T03:30:29.041Z,97.85
2017-08-08T03:31:38.579Z,97.75
2017-08-08T03:32:48.113Z,98.04
2017-08-08T03:33:58.298Z,97.85
2017-08-08T03:35:07.504Z,97.85
2017-08-08T03:36:16.772Z,98.81
2017-08-08T03:37:26.622Z,99.1
2017-08-08T03:38:35.825Z,99.19
2017-08-08T03:39:45.032Z,99.38
2017-08-08T03:40:53.912Z,99.19
2017-08-08T03:42:04.140Z,98.71
2017-08-08T03:43:13.706Z,98.24
2017-08-08T03:44:22.915Z,99
2017-08-08T03:45:32.766Z,98.9
2017-08-08T03:46:41.649Z,99.29
2017-08-08T03:47:51.237Z,99.29
2017-08-08T03:49:00.134Z,98.9
2017-08-08T03:50:10.316Z,98.71
2017-08-08T03:51:19.852Z,99.19
2017-08-08T03:52:28.738Z,99
2017-08-08T03:53:38.429Z,98.33
2017-08-08T03:54:47.957Z,98.71
2017-08-08T03:55:57.809Z,99.19
2017-08-08T03:57:07.016Z,99.1
2017-08-08T03:58:16.553Z,98.61
2017-08-08T03:59:26.478Z,98.71
2017-08-08T04:00:36.009Z,98.9
2017-08-08T04:01:45.537Z,98.9
2017-08-08T04:02:54.424Z,98.71
2017-08-08T04:04:03.967Z,98.43
2017-08-08T04:05:14.118Z,99.19
2017-08-08T04:06:23.324Z,98.9
2017-08-08T04:07:32.207Z,99.1
2017-08-08T04:08:41.736Z,98.9
2017-08-08T04:09:50.941Z,98.33
2017-08-08T04:11:00.306Z,99
2017-08-08T04:12:10.806Z,98.71
2017-08-08T04:13:20.011Z,98.24
2017-08-08T04:14:29.222Z,98.81
2017-08-08T04:15:38.428Z,98.81
2017-08-08T04:16:48.428Z,98.43
2017-08-08T04:17:57.645Z,97.85
2017-08-08T04:19:06.529Z,97.66
2017-08-08T04:20:16.067Z,97.85
2017-08-08T04:21:26.247Z,97.28
2017-08-08T04:22:35.189Z,97.95
2017-08-08T04:23:44.403Z,97.08
2017-08-08T04:24:53.945Z,97.47
2017-08-08T04:26:03.149Z,97.95
2017-08-08T04:27:12.352Z,97.85
2017-08-08T04:28:21.386Z,97.85
2017-08-08T04:29:30.929Z,97.85
2017-08-08T04:30:40.787Z,97.28
2017-08-08T04:31:49.993Z,97.04
2017-08-08T04:32:59.521Z,97.13
2017-08-08T04:34:09.398Z,97.08
2017-08-08T04:35:18.285Z,97.71
2017-08-08T04:36:27.494Z,97.04
2017-08-08T04:37:37.031Z,96.8
2017-08-08T04:38:46.879Z,97.9
2017-08-08T04:39:55.915Z,97.71
2017-08-08T04:41:05.464Z,97.13
2017-08-08T04:42:14.996Z,98.04
2017-08-08T04:43:24.860Z,98.09
2017-08-08T04:44:33.750Z,98.09
2017-08-08T04:45:42.963Z,98.09
2017-08-08T04:46:52.490Z,97.13
2017-08-08T04:48:01.697Z,98.09
2017-08-08T04:49:11.227Z,97.13
2017-08-08T04:50:20.762Z,98.47
2017-08-08T04:51:30.765Z,97.71
2017-08-08T04:52:40.301Z,97.9
2017-08-08T04:53:49.834Z,97.42
2017-08-08T04:54:59.367Z,97.8
2017-08-08T04:56:09.546Z,97.33
2017-08-08T04:57:18.909Z,97.52
2017-08-08T04:58:28.440Z,97.13
2017-08-08T04:59:37.320Z,97.13
2017-08-08T05:00:46.530Z,97.61
2017-08-08T05:01:56.717Z,97.52
2017-08-08T05:03:05.975Z,97.71
2017-08-08T05:04:15.513Z,97.52
2017-08-08T05:05:25.096Z,97.33
2017-08-08T05:06:34.634Z,97.52
2017-08-08T05:07:44.153Z,98
2017-08-08T05:08:53.362Z,97.23
2017-08-08T05:10:02.566Z,97.33
2017-08-08T05:11:11.496Z,97.23
2017-08-08T05:12:21.106Z,97.23
2017-08-08T05:13:30.961Z,96.66
2017-08-08T05:14:40.555Z,98.09
2017-08-08T05:15:50.100Z,98
2017-08-08T05:16:59.316Z,98.09
2017-08-08T05:18:08.853Z,98.09
2017-08-08T05:19:18.713Z,97.13
2017-08-08T05:20:28.577Z,97.52
2017-08-08T05:21:37.784Z,97.85
2017-08-08T05:22:47.325Z,97.85
2017-08-08T05:23:56.207Z,97.85
2017-08-08T05:25:05.412Z,98.14
2017-08-08T05:26:14.952Z,97.47
2017-08-08T05:27:24.157Z,97.75
2017-08-08T05:28:33.190Z,97.85
2017-08-08T05:29:42.398Z,97.38
2017-08-08T05:30:51.933Z,98.14
2017-08-08T05:32:01.789Z,97.85
2017-08-08T05:33:11.317Z,97.47
2017-08-08T05:34:20.456Z,97.28
2017-08-08T05:35:29.663Z,97.28
2017-08-08T05:36:38.872Z,97.18
2017-08-08T05:37:47.761Z,96.99
2017-08-08T05:38:57.290Z,97.66
2017-08-08T05:40:06.597Z,96.99
2017-08-08T05:41:16.127Z,97.47
2017-08-08T05:42:25.658Z,96.89
2017-08-08T05:43:34.878Z,96.7
2017-08-08T05:44:44.728Z,97.09
2017-08-08T05:45:54.685Z,97.95
2017-08-08T05:47:03.895Z,97.75
2017-08-08T05:48:13.426Z,97.95
2017-08-08T05:49:23.276Z,97.56
2017-08-08T05:50:32.482Z,97.85
2017-08-08T05:51:42.158Z,97.85
2017-08-08T05:52:52.334Z,97.47
2017-08-08T05:54:02.186Z,96.61
2017-08-08T05:55:11.718Z,96.51
2017-08-08T05:56:21.571Z,97.47
2017-08-08T05:57:30.606Z,97.75
2017-08-08T05:58:40.144Z,98
2017-08-08T05:59:49.358Z,97.61
2017-08-08T06:00:59.531Z,97.14
2017-08-08T06:02:09.394Z,97.04
2017-08-08T06:03:19.726Z,97.61
2017-08-08T06:04:28.611Z,97.8
2017-08-08T06:05:38.467Z,96.84
2017-08-08T06:06:47.679Z,96.94
2017-08-08T06:07:56.884Z,97.04
2017-08-08T06:09:06.853Z,97.23
2017-08-08T06:10:16.386Z,98.19
2017-08-08T06:11:26.562Z,97.42
2017-08-08T06:12:35.772Z,97.71
2017-08-08T06:13:45.619Z,96.94
2017-08-08T06:14:54.978Z,97.14
2017-08-08T06:16:04.832Z,96.27
2017-08-08T06:17:14.361Z,96.37
2017-08-08T06:18:23.900Z,97.04
2017-08-08T06:19:33.448Z,97.04
2017-08-08T06:20:42.703Z,95.6
2017-08-08T06:21:52.232Z,96.32
2017-08-08T06:23:01.152Z,96.42
2017-08-08T06:24:10.033Z,96.51
2017-08-08T06:25:19.891Z,96.22
2017-08-08T06:26:29.198Z,96.61
2017-08-08T06:27:39.060Z,97.09
2017-08-08T06:28:48.276Z,97.38
2017-08-08T06:29:57.488Z,96.22
2017-08-08T06:31:06.721Z,96.22
2017-08-08T06:32:16.305Z,96.42
2017-08-08T06:33:25.515Z,96.22
2017-08-08T06:34:34.724Z,95.94
2017-08-08T06:35:44.579Z,96.42
2017-08-08T06:36:54.105Z,96.22
2017-08-08T06:38:03.688Z,96.22
2017-08-08T06:39:13.217Z,96.22
2017-08-08T06:40:22.750Z,95.56
2017-08-08T06:41:31.959Z,95.65
2017-08-08T06:42:41.815Z,96.32
2017-08-08T06:43:51.722Z,96.13
2017-08-08T06:45:00.604Z,96.42
2017-08-08T06:46:09.854Z,96.32
2017-08-08T06:47:19.061Z,95.84
2017-08-08T06:48:28.319Z,95.46
2017-08-08T06:49:37.359Z,96.22
2017-08-08T06:50:46.240Z,95.84
2017-08-08T06:51:55.455Z,95.26
2017-08-08T06:53:04.985Z,94.07
2017-08-08T06:54:13.871Z,94.21
2017-08-08T06:55:23.278Z,93.88
2017-08-08T06:56:32.484Z,94.07
2017-08-08T06:57:42.018Z,94.07
2017-08-08T06:58:51.548Z,93.59
2017-08-08T07:00:00.750Z,94.07
2017-08-08T07:01:09.786Z,94.64
2017-08-08T07:02:19.966Z,93.97
2017-08-08T07:03:29.174Z,93.44
2017-08-08T07:04:38.720Z,93.06
2017-08-08T07:05:48.256Z,92.86
2017-08-08T07:06:58.264Z,91.72
2017-08-08T07:08:07.471Z,91.72
2017-08-08T07:09:17.320Z,91.14
2017-08-08T07:10:26.573Z,90.56
2017-08-08T07:11:35.783Z,90.9
2017-08-08T07:12:45.146Z,90.03
2017-08-08T07:13:54.362Z,89.65
2017-08-08T07:15:03.906Z,89.26
2017-08-08T07:16:12.797Z,88.98
2017-08-08T07:17:22.329Z,90.32
2017-08-08T07:18:31.792Z,90.13
2017-08-08T07:19:41.323Z,89.84
2017-08-08T07:20:50.543Z,89.36
2017-08-08T07:22:00.398Z,89.84
2017-08-08T07:23:10.257Z,90.13
2017-08-08T07:24:19.995Z,89.84
2017-08-08T07:25:29.525Z,89.46
2017-08-08T07:26:39.378Z,88.73
2017-08-08T07:27:48.909Z,87.96
2017-08-08T07:28:58.442Z,89.02
2017-08-08T07:30:07.854Z,87.87
2017-08-08T07:31:17.710Z,88.73
2017-08-08T07:32:26.919Z,88.73
2017-08-08T07:33:36.454Z,87.77
2017-08-08T07:34:45.662Z,88.45
2017-08-08T07:35:55.075Z,88.93
2017-08-08T07:37:04.929Z,88.64
2017-08-08T07:38:13.815Z,88.93
2017-08-08T07:39:23.677Z,88.54
2017-08-08T07:40:32.920Z,87.01
2017-08-08T07:41:43.173Z,86.81
2017-08-08T07:42:52.075Z,87.77
2017-08-08T07:44:01.929Z,87.19
2017-08-08T07:45:11.143Z,88.01
2017-08-08T07:46:20.354Z,86.52
2017-08-08T07:47:29.708Z,87.34
2017-08-08T07:48:38.923Z,88.39
2017-08-08T07:49:48.132Z,87.92
2017-08-08T07:50:57.016Z,88.97
2017-08-08T07:52:06.554Z,88.01
2017-08-08T07:53:15.925Z,87.82
2017-08-08T07:54:25.457Z,88.3
2017-08-08T07:55:34.667Z,87.34
2017-08-08T07:56:43.876Z,86.57
2017-08-08T07:57:53.410Z,86.85
2017-08-08T07:59:02.941Z,85.71
2017-08-08T08:00:12.151Z,85.51
2017-08-08T08:01:21.036Z,85.61
2017-08-08T08:02:30.564Z,85.51
2017-08-08T08:03:40.434Z,85.89
2017-08-08T08:04:49.791Z,84.55
2017-08-08T08:05:59.009Z,84.26
2017-08-08T08:07:08.220Z,84.4
2017-08-08T08:08:17.761Z,84.01
2017-08-08T08:09:27.299Z,83.73
2017-08-08T08:10:36.285Z,83.53
2017-08-08T08:11:45.498Z,83.25
2017-08-08T08:12:55.035Z,83.63
2017-08-08T08:14:04.570Z,84.69
2017-08-08T08:15:14.107Z,84.21
2017-08-08T08:16:23.089Z,84.78
2017-08-08T08:17:32.299Z,84.5
2017-08-08T08:18:42.481Z,84.78
2017-08-08T08:19:51.369Z,85.27
2017-08-08T08:21:00.949Z,84.63
2017-08-08T08:22:11.277Z,83.06
2017-08-08T08:23:20.809Z,83.77
2017-08-08T08:24:30.022Z,85.21
2017-08-08T08:25:38.913Z,84.83
2017-08-08T08:26:48.449Z,83.86
2017-08-08T08:27:57.859Z,84.34
2017-08-08T08:29:07.413Z,83.29
2017-08-08T08:30:16.623Z,83.19
2017-08-08T08:31:25.845Z,83.58
2017-08-08T08:32:35.374Z,83
2017-08-08T08:33:44.738Z,81.5
2017-08-08T08:34:53.949Z,82.37
2017-08-08T08:36:03.482Z,82.46
2017-08-08T08:37:13.024Z,81.6
2017-08-08T08:38:21.915Z,81.3
2017-08-08T08:39:30.905Z,81.6
2017-08-08T08:40:40.767Z,81.98
2017-08-08T08:41:50.310Z,82.65
2017-08-08T08:42:59.523Z,82.08
2017-08-08T08:44:09.057Z,82.65
2017-08-08T08:45:18.743Z,82.65
2017-08-08T08:46:28.607Z,83.52
2017-08-08T08:47:38.145Z,81.02
2017-08-08T08:48:48.323Z,81.88
2017-08-08T08:49:57.860Z,80.63
2017-08-08T08:51:07.170Z,81.02
2017-08-08T08:52:16.063Z,81.88
2017-08-08T08:53:24.952Z,81.54
2017-08-08T08:54:34.164Z,81.06
2017-08-08T08:55:43.377Z,80.48
2017-08-08T08:56:52.461Z,80.96
2017-08-08T08:58:02.601Z,81.06
2017-08-08T08:59:11.806Z,80.87
2017-08-08T09:00:21.023Z,80.19
2017-08-08T09:01:30.563Z,80
2017-08-08T09:02:39.828Z,79.81
2017-08-08T09:03:49.040Z,80.48
2017-08-08T09:04:58.588Z,80.91
2017-08-08T09:06:07.476Z,79.94
2017-08-08T09:07:16.362Z,79.94
2017-08-08T09:08:25.896Z,80.23
2017-08-08T09:09:35.106Z,79.36
2017-08-08T09:10:44.652Z,79.56
2017-08-08T09:11:53.861Z,80.43
2017-08-08T09:13:03.080Z,79.85
2017-08-08T09:14:12.771Z,79.85
2017-08-08T09:15:22.652Z,79.56
2017-08-08T09:16:31.863Z,79.08
2017-08-08T09:17:41.398Z,79.17
2017-08-08T09:18:50.609Z,79.89
2017-08-08T09:20:00.394Z,78.73
2017-08-08T09:21:09.281Z,78.34
2017-08-08T09:22:19.141Z,78.83
2017-08-08T09:23:28.352Z,78.83
2017-08-08T09:24:37.887Z,77.96
2017-08-08T09:25:47.024Z,77.58
2017-08-08T09:26:55.914Z,77
2017-08-08T09:28:05.455Z,78.06
2017-08-08T09:29:14.666Z,78.54
2017-08-08T09:30:24.529Z,77.61
2017-08-08T09:31:33.888Z,77.81
2017-08-08T09:32:43.104Z,78.86
2017-08-08T09:33:52.640Z,78.29
2017-08-08T09:35:01.859Z,77.9
2017-08-08T09:36:11.399Z,76.45
2017-08-08T09:37:20.980Z,77.81
2017-08-08T09:38:30.196Z,78.09
2017-08-08T09:39:39.409Z,78.09
2017-08-08T09:40:48.947Z,78.09
2017-08-08T09:41:58.159Z,77.9
2017-08-08T09:43:07.471Z,78.96
2017-08-08T09:44:16.678Z,77.71
2017-08-08T09:45:26.222Z,76.59
2017-08-08T09:46:35.432Z,77.75
2017-08-08T09:47:44.971Z,77.84
2017-08-08T09:48:54.166Z,77.55
2017-08-08T09:50:03.377Z,77.65
2017-08-08T09:51:12.916Z,76.68
2017-08-08T09:52:22.128Z,76.1
2017-08-08T09:53:31.342Z,76.88
2017-08-08T09:54:40.568Z,77.46
2017-08-08T09:55:49.782Z,78.42
2017-08-08T09:56:58.996Z,78.33
2017-08-08T09:58:08.211Z,76.98
2017-08-08T09:59:17.781Z,76.78
2017-08-08T10:00:27.418Z,78.33
2017-08-08T10:01:36.963Z,78.42
2017-08-08T10:02:46.502Z,79.1
2017-08-08T10:03:55.393Z,79.1
2017-08-08T10:05:04.602Z,78.71
2017-08-08T10:06:14.341Z,79.77
2017-08-08T10:07:23.556Z,78.33
2017-08-08T10:08:32.771Z,79.43
2017-08-08T10:09:41.666Z,79.72
2017-08-08T10:10:50.553Z,80.49
2017-08-08T10:11:59.495Z,79.33
2017-08-08T10:13:09.032Z,78.17
2017-08-08T10:14:18.571Z,77.11
2017-08-08T10:15:28.438Z,76.82
2017-08-08T10:16:37.653Z,76.92
2017-08-08T10:17:47.610Z,77.01
2017-08-08T10:18:57.158Z,77.3
2017-08-08T10:20:06.691Z,77.59
2017-08-08T10:21:15.900Z,77.5
2017-08-08T10:22:25.112Z,78.33
2017-08-08T10:23:34.529Z,78.23
2017-08-08T10:24:44.711Z,78.94
2017-08-08T10:25:54.246Z,78.46
2017-08-08T10:27:03.467Z,79.04
2017-08-08T10:28:13.009Z,78.46
2017-08-08T10:29:22.273Z,78.94
2017-08-08T10:30:31.535Z,78.46
2017-08-08T10:31:40.751Z,77.01
2017-08-08T10:32:50.614Z,78.46
2017-08-08T10:34:00.149Z,78.31
2017-08-08T10:35:10.111Z,76.92
2017-08-08T10:36:19.014Z,77.69
2017-08-08T10:37:28.235Z,78.36
2017-08-08T10:38:37.450Z,77.11
2017-08-08T10:39:46.660Z,77.63
2017-08-08T10:40:56.120Z,78.5
2017-08-08T10:42:05.658Z,76.37
2017-08-08T10:43:14.869Z,76.76
2017-08-08T10:44:24.415Z,77.05
2017-08-08T10:45:33.638Z,77.15
2017-08-08T10:46:42.950Z,77.05
2017-08-08T10:47:51.840Z,77.53
2017-08-08T10:49:01.377Z,77.73
2017-08-08T10:50:11.234Z,76.76
2017-08-08T10:51:21.091Z,77.15
2017-08-08T10:52:30.355Z,78.99
2017-08-08T10:53:39.894Z,78.31
2017-08-08T10:54:49.453Z,79.12
2017-08-08T10:55:59.018Z,77
2017-08-08T10:57:08.557Z,76.28
2017-08-08T10:58:18.675Z,76.8
2017-08-08T10:59:28.212Z,76.86
2017-08-08T11:00:37.430Z,77.09
2017-08-08T11:01:46.965Z,78.34
2017-08-08T11:02:56.183Z,79.89
2017-08-08T11:04:05.598Z,78.54
2017-08-08T11:05:14.809Z,77.86
2017-08-08T11:06:25.002Z,78.83
2017-08-08T11:07:35.183Z,77.38
2017-08-08T11:08:44.728Z,78.25
2017-08-08T11:09:53.948Z,78.06
2017-08-08T11:11:03.487Z,77.48
2017-08-08T11:12:12.698Z,78.25
2017-08-08T11:13:22.240Z,77.96
2017-08-08T11:14:31.782Z,78.06
2017-08-08T11:15:40.817Z,78.44
2017-08-08T11:16:50.679Z,77.57
2017-08-08T11:18:00.218Z,76.9
2017-08-08T11:19:09.109Z,76.03
2017-08-08T11:20:18.333Z,75.93
2017-08-08T11:21:27.752Z,74.87
2017-08-08T11:22:36.967Z,74.68
2017-08-08T11:23:46.505Z,74.87
2017-08-08T11:24:55.392Z,74.38
2017-08-08T11:26:04.287Z,72.94
2017-08-08T11:27:14.826Z,74.29
2017-08-08T11:28:24.045Z,75.54
2017-08-08T11:29:33.257Z,74.96
2017-08-08T11:30:42.164Z,73.22
2017-08-08T11:31:51.376Z,73.22
2017-08-08T11:33:01.064Z,72.1
2017-08-08T11:34:10.277Z,73.42
2017-08-08T11:35:19.817Z,70.62
2017-08-08T11:36:28.759Z,69.94
2017-08-08T11:37:38.625Z,71
2017-08-08T11:38:47.990Z,70.56
2017-08-08T11:39:57.526Z,71.68
2017-08-08T11:41:06.742Z,70.72
2017-08-08T11:42:15.655Z,70.42
2017-08-08T11:43:25.243Z,70.84
2017-08-08T11:44:34.210Z,70.32
2017-08-08T11:45:43.745Z,70.14
2017-08-08T11:46:52.957Z,70.84
2017-08-08T11:48:01.846Z,68.4
2017-08-08T11:49:10.735Z,68.01
2017-08-08T11:50:19.953Z,68.3
2017-08-08T11:51:29.488Z,68.52
2017-08-08T11:52:38.699Z,69.65
2017-08-08T11:53:48.560Z,68.98
2017-08-08T11:54:58.773Z,69.56
2017-08-08T11:56:08.933Z,68.4
2017-08-08T11:57:18.494Z,69.56
2017-08-08T11:58:28.077Z,70.04
2017-08-08T11:59:37.618Z,69.01
2017-08-08T12:00:47.155Z,67.85
2017-08-08T12:01:57.318Z,67.66
2017-08-08T12:03:06.907Z,68.04
2017-08-08T12:04:16.802Z,67.75
2017-08-08T12:05:26.019Z,67.94
2017-08-08T12:06:34.917Z,68.49
2017-08-08T12:07:44.814Z,70.23
2017-08-08T12:08:54.026Z,69.17
2017-08-08T12:10:03.576Z,70.14
2017-08-08T12:11:13.444Z,70.32
2017-08-08T12:12:22.659Z,70.62
2017-08-08T12:13:32.492Z,70.94
2017-08-08T12:14:41.722Z,70.17
2017-08-08T12:15:51.584Z,70.07
2017-08-08T12:17:00.795Z,70.26
2017-08-08T12:18:10.329Z,70.07
2017-08-08T12:19:20.118Z,70.75
2017-08-08T12:20:29.334Z,70.36
2017-08-08T12:21:38.255Z,71.04
2017-08-08T12:22:47.792Z,70.65
2017-08-08T12:23:57.006Z,70.46
2017-08-08T12:25:06.379Z,70.75
2017-08-08T12:26:15.269Z,70.65
2017-08-08T12:27:24.804Z,71.62
2017-08-08T12:28:34.018Z,71.91
2017-08-08T12:29:43.552Z,70.84
2017-08-08T12:30:53.306Z,70.84
2017-08-08T12:32:02.842Z,71.3
2017-08-08T12:33:12.061Z,71.33
2017-08-08T12:34:21.617Z,71.48
2017-08-08T12:35:31.410Z,71.2
2017-08-08T12:36:41.053Z,71
2017-08-08T12:37:50.600Z,71.52
2017-08-08T12:38:59.498Z,71.91
2017-08-08T12:40:09.034Z,71.1
2017-08-08T12:41:18.931Z,70.81
2017-08-08T12:42:28.017Z,71.68
2017-08-08T12:43:37.262Z,71.97
2017-08-08T12:44:46.210Z,71.58
2017-08-08T12:45:55.111Z,71.78
2017-08-08T12:47:04.004Z,72.94
2017-08-08T12:48:13.494Z,72.16
2017-08-08T12:49:22.762Z,72.26
2017-08-08T12:50:32.519Z,73.32
2017-08-08T12:51:41.976Z,71
2017-08-08T12:52:51.222Z,71.1
2017-08-08T12:54:01.572Z,71.3
2017-08-08T12:55:11.108Z,71.2
2017-08-08T12:56:20.648Z,72.16
2017-08-08T12:57:29.538Z,71.48
2017-08-08T12:58:38.753Z,72.26
2017-08-08T12:59:48.143Z,73.03
2017-08-08T13:00:57.051Z,73.03
2017-08-08T13:02:06.817Z,72.94
2017-08-08T13:03:15.708Z,72.06
2017-08-08T13:04:25.612Z,72.06
2017-08-08T13:05:35.039Z,72.36
2017-08-08T13:06:44.578Z,71.58
2017-08-08T13:07:54.375Z,71.68
2017-08-08T13:09:03.500Z,72.26
2017-08-08T13:10:13.785Z,72.64
2017-08-08T13:11:22.877Z,72.45
2017-08-08T13:12:32.738Z,72.36
2017-08-08T13:13:41.982Z,72.06
2017-08-08T13:14:51.518Z,72.94
2017-08-08T13:16:01.065Z,71.68
2017-08-08T13:17:10.642Z,72.74
2017-08-08T13:18:20.182Z,73.71
2017-08-08T13:19:29.083Z,73.32
2017-08-08T13:20:38.942Z,73.52
2017-08-08T13:21:48.478Z,73.71
2017-08-08T13:22:58.012Z,74.25
2017-08-08T13:24:07.550Z,74.06
2017-08-08T13:25:17.411Z,73.38
2017-08-08T13:26:26.303Z,73.67
2017-08-08T13:27:36.179Z,73.58
2017-08-08T13:28:45.442Z,74.06
2017-08-08T13:29:55.644Z,74.16
2017-08-08T13:31:05.183Z,74.83
2017-08-08T13:32:15.045Z,73.77
2017-08-08T13:33:24.267Z,74.93
2017-08-08T13:34:33.548Z,75.12
2017-08-08T13:35:43.097Z,75.6
2017-08-08T13:36:53.315Z,74.64
2017-08-08T13:38:03.175Z,75.89
2017-08-08T13:39:12.719Z,76.57
2017-08-08T13:40:22.391Z,76.28
2017-08-08T13:41:31.611Z,76.47
2017-08-08T13:42:40.832Z,77.83
2017-08-08T13:43:50.695Z,77.83
2017-08-08T13:45:00.228Z,78.89
2017-08-08T13:46:10.171Z,77.73
2017-08-08T13:47:19.718Z,77.83
2017-08-08T13:48:29.251Z,78.5
2017-08-08T13:49:39.113Z,78.31
2017-08-08T13:50:48.986Z,79.37
2017-08-08T13:51:58.586Z,79.17
2017-08-08T13:53:07.805Z,79.37
2017-08-08T13:54:17.020Z,81.11
2017-08-08T13:55:26.879Z,79.17
2017-08-08T13:56:36.424Z,80.05
2017-08-08T13:57:46.146Z,82.65
2017-08-08T13:58:55.703Z,80.91
2017-08-08T14:00:05.572Z,81.35
2017-08-08T14:01:15.755Z,81.35
2017-08-08T14:02:25.639Z,81.45
2017-08-08T14:03:35.648Z,81.16
2017-08-08T14:04:44.540Z,80.87
2017-08-08T14:05:54.083Z,81.45
2017-08-08T14:07:04.603Z,81.26
2017-08-08T14:08:13.820Z,81.07
2017-08-08T14:09:23.357Z,81.65
2017-08-08T14:10:33.220Z,81.74
2017-08-08T14:11:43.410Z,81.74
2017-08-08T14:12:52.979Z,82.61
2017-08-08T14:14:02.202Z,82.42
2017-08-08T14:15:12.445Z,82.51
2017-08-08T14:16:22.315Z,82.71
2017-08-08T14:17:32.179Z,83
2017-08-08T14:18:41.735Z,83.48
2017-08-08T14:19:51.315Z,83.58
2017-08-08T14:21:01.500Z,82.51
2017-08-08T14:22:11.035Z,84.06
2017-08-08T14:23:19.923Z,82.61
2017-08-08T14:24:29.784Z,83.67
2017-08-08T14:25:39.323Z,83.87
2017-08-08T14:26:48.463Z,84.06
2017-08-08T14:27:57.671Z,84.25
2017-08-08T14:29:07.207Z,83.39
2017-08-08T14:30:16.740Z,84.25
2017-08-08T14:31:26.282Z,84.06
2017-08-08T14:32:35.967Z,83.58
2017-08-08T14:33:44.855Z,84.25
2017-08-08T14:34:54.392Z,83.77
2017-08-08T14:36:03.927Z,83.77
2017-08-08T14:37:13.141Z,84.44
2017-08-08T14:38:23.015Z,83.87
2017-08-08T14:39:32.251Z,84.16
2017-08-08T14:40:42.114Z,83.29
2017-08-08T14:41:51.647Z,84.25
2017-08-08T14:43:01.509Z,82.57
2017-08-08T14:44:11.042Z,83.53
2017-08-08T14:45:20.923Z,84.11
2017-08-08T14:46:29.812Z,83.58
2017-08-08T14:47:38.704Z,84.25
2017-08-08T14:48:47.947Z,85.6
2017-08-08T14:49:57.158Z,83.29
2017-08-08T14:51:06.052Z,83.48
2017-08-08T14:52:15.617Z,83.39
2017-08-08T14:53:25.153Z,84.59
2017-08-08T14:54:34.695Z,85.56
2017-08-08T14:55:44.232Z,84.5
2017-08-08T14:56:53.800Z,83.92
2017-08-08T14:58:03.024Z,84.21
2017-08-08T14:59:12.904Z,85.08